createdAt,value
2023-05-04T00:08:10.796Z,6.43
2023-05-04T00:23:13.574Z,6.50
2023-05-04T00:38:16.898Z,6.07
2023-05-04T00:53:19.817Z,6.19
2023-05-04T01:08:29.705Z,5.83
2023-05-04T01:23:32.463Z,5.89
2023-05-04T01:38:35.152Z,5.49
2023-05-04T01:53:38.205Z,5.61
2023-05-04T02:08:41.449Z,5.24
2023-05-04T02:23:49.181Z,5.51
2023-05-04T02:38:51.979Z,5.37
2023-05-04T02:53:54.705Z,5.69
2023-05-04T03:08:57.839Z,4.98
2023-05-04T03:24:00.510Z,4.56
2023-05-04T03:39:03.347Z,5.02
2023-05-04T03:54:06.565Z,5.97
2023-05-04T04:09:09.143Z,8.64
2023-05-04T04:24:12.003Z,10.94
2023-05-04T04:39:16.989Z,13.85
2023-05-04T04:54:19.900Z,16.94
2023-05-04T05:09:22.778Z,19.86
2023-05-04T05:24:25.452Z,22.01
2023-05-04T05:39:28.849Z,24.26
2023-05-04T05:54:32.598Z,26.30
2023-05-04T06:09:35.272Z,27.98
2023-05-04T06:24:38.060Z,29.24
2023-05-04T06:39:40.792Z,30.33
2023-05-04T06:54:43.627Z,31.16
2023-05-04T07:09:50.844Z,31.93
2023-05-04T07:24:54.001Z,32.45
2023-05-04T07:39:56.576Z,32.92
2023-05-04T07:54:59.234Z,33.21
2023-05-04T08:10:02.026Z,33.12
2023-05-04T08:25:06.199Z,32.84
2023-05-04T08:40:09.690Z,31.98
2023-05-04T08:55:13.119Z,31.43
2023-05-04T09:10:15.817Z,30.94
2023-05-04T09:25:18.427Z,30.34
2023-05-04T09:40:41.015Z,29.92
2023-05-04T09:55:46.787Z,30.07
2023-05-04T10:10:51.298Z,29.69
2023-05-04T10:26:17.315Z,28.50
2023-05-04T10:41:21.976Z,27.35
2023-05-04T10:56:28.413Z,26.04
2023-05-04T11:11:37.405Z,24.53
2023-05-04T11:26:48.889Z,23.27
2023-05-04T11:41:52.819Z,22.50
2023-05-04T11:56:56.048Z,21.96
2023-05-04T12:11:58.933Z,21.74
2023-05-04T12:27:02.177Z,21.51
2023-05-04T12:42:05.477Z,21.20
2023-05-04T12:57:09.235Z,20.60
2023-05-04T13:12:13.890Z,20.14
2023-05-04T13:27:17.482Z,19.89
2023-05-04T13:42:21.155Z,19.72
2023-05-04T13:57:23.863Z,19.42
2023-05-04T14:12:27.456Z,19.09
2023-05-04T14:27:34.404Z,18.86
2023-05-04T14:42:37.636Z,18.64
2023-05-04T14:57:41.667Z,18.55
2023-05-04T15:12:44.490Z,18.47
2023-05-04T15:27:47.349Z,18.48
2023-05-04T15:42:51.100Z,18.54
2023-05-04T15:57:54.233Z,18.83
2023-05-04T16:12:57.141Z,18.88
2023-05-04T16:28:00.204Z,18.86
2023-05-04T16:43:02.929Z,18.76
2023-05-04T16:58:05.498Z,18.69
2023-05-04T17:13:08.438Z,18.59
2023-05-04T17:28:11.512Z,18.33
2023-05-04T17:43:14.122Z,17.80
2023-05-04T17:58:16.921Z,17.18
2023-05-04T18:13:19.783Z,16.48
2023-05-04T18:28:22.587Z,15.74
2023-05-04T18:43:25.420Z,15.08
2023-05-04T18:58:28.261Z,14.44
2023-05-04T19:13:31.224Z,13.93
2023-05-04T19:28:34.234Z,13.51
2023-05-04T19:43:38.566Z,13.12
2023-05-04T19:58:41.535Z,12.88
2023-05-04T20:13:44.515Z,12.56
2023-05-04T20:28:47.260Z,12.26
2023-05-04T20:43:50.561Z,11.97
2023-05-04T20:58:53.190Z,11.68
2023-05-04T21:13:55.804Z,11.44
2023-05-04T21:28:58.684Z,11.23
2023-05-04T21:44:01.283Z,11.04
2023-05-04T21:59:03.906Z,10.68
2023-05-04T22:14:06.808Z,10.40
2023-05-04T22:29:09.683Z,10.10
2023-05-04T22:44:12.306Z,9.91
2023-05-04T22:59:15.013Z,9.58
2023-05-04T23:14:18.325Z,9.47
2023-05-04T23:29:21.227Z,9.33
2023-05-04T23:44:23.794Z,9.16
2023-05-04T23:59:26.488Z,8.60
